Time,TemperatureF,DewpointF,PressureIn,WindDirection,WindDirectionDegrees,WindSpeedMPH,WindSpeedGustMPH,Humidity,HourlyPrecipIn,Conditions,Clouds,dailyrainin,SoftwareType,DateUTC
2013-10-28 00:00:00,45.0,-99.9,-100.00,SSE,164,2.0,3.0,-999,0.00,,,0.00,,2013-10-28 05:00:00,
2013-10-28 00:43:00,45.0,-99.9,-100.00,SSE,164,2.0,3.0,-999,0.00,,,0.00,,2013-10-28 05:43:00,
2013-10-28 00:53:00,45.0,-99.9,-100.00,SSE,164,2.0,3.0,-999,0.00,,,0.00,,2013-10-28 05:53:00,
2013-10-28 01:00:00,42.0,-99.9,-100.00,NNE,23,0.0,2.0,-999,0.00,,,0.00,,2013-10-28 06:00:00,
2013-10-28 01:43:00,42.0,-99.9,-100.00,NNE,23,0.0,2.0,-999,0.00,,,0.00,,2013-10-28 06:43:00,
2013-10-28 01:52:00,42.0,-99.9,-100.00,NNE,23,0.0,2.0,-999,0.00,,,0.00,,2013-10-28 06:52:00,
2013-10-28 02:00:00,42.0,-99.9,-100.00,SE,125,0.0,2.0,-999,0.00,,,0.00,,2013-10-28 07:00:00,
2013-10-28 02:42:00,42.0,-99.9,-100.00,SE,125,0.0,2.0,-999,0.00,,,0.00,,2013-10-28 07:42:00,
2013-10-28 02:52:00,42.0,-99.9,-100.00,SE,125,0.0,2.0,-999,0.00,,,0.00,,2013-10-28 07:52:00,
2013-10-28 03:00:00,40.0,-99.9,-100.00,South,181,2.0,3.0,-999,0.00,,,0.00,,2013-10-28 08:00:00,
2013-10-28 03:42:00,40.0,-99.9,-100.00,South,181,2.0,3.0,-999,0.00,,,0.00,,2013-10-28 08:42:00,
2013-10-28 03:52:00,40.0,-99.9,-100.00,South,181,2.0,3.0,-999,0.00,,,0.00,,2013-10-28 08:52:00,
2013-10-28 04:00:00,41.0,-99.9,-100.00,South,175,3.0,5.0,-999,0.00,,,0.00,,2013-10-28 09:00:00,
2013-10-28 04:53:00,41.0,-99.9,-100.00,South,175,3.0,5.0,-999,0.00,,,0.00,,2013-10-28 09:53:00,
2013-10-28 05:00:00,39.0,-99.9,-100.00,SSW,194,2.0,3.0,-999,0.00,,,0.00,,2013-10-28 10:00:00,
2013-10-28 05:43:00,39.0,-99.9,-100.00,SSW,194,2.0,3.0,-999,0.00,,,0.00,,2013-10-28 10:43:00,
2013-10-28 05:53:00,39.0,-99.9,-100.00,SSW,194,2.0,3.0,-999,0.00,,,0.00,,2013-10-28 10:53:00,
2013-10-28 06:00:00,40.0,-99.9,-100.00,North,-999,2.0,11.0,-999,0.00,,,0.00,,2013-10-28 11:00:00,
2013-10-28 06:43:00,40.0,-99.9,-100.00,North,-999,2.0,11.0,-999,0.00,,,0.00,,2013-10-28 11:43:00,
2013-10-28 06:52:00,40.0,-99.9,-100.00,North,-999,2.0,11.0,-999,0.00,,,0.00,,2013-10-28 11:52:00,
2013-10-28 07:00:00,38.0,-99.9,-100.00,East,83,0.0,6.0,-999,0.00,,,0.00,,2013-10-28 12:00:00,
2013-10-28 07:42:00,38.0,-99.9,-100.00,East,83,0.0,6.0,-999,0.00,,,0.00,,2013-10-28 12:42:00,
2013-10-28 07:52:00,38.0,-99.9,-100.00,East,83,0.0,6.0,-999,0.00,,,0.00,,2013-10-28 12:52:00,
2013-10-28 08:00:00,37.0,-99.9,-100.00,NNW,331,0.0,5.0,-999,0.00,,,0.00,,2013-10-28 13:00:00,
2013-10-28 08:42:00,37.0,-99.9,-100.00,NNW,331,0.0,5.0,-999,0.00,,,0.00,,2013-10-28 13:42:00,
2013-10-28 08:52:00,37.0,-99.9,-100.00,NNW,331,0.0,5.0,-999,0.00,,,0.00,,2013-10-28 13:52:00,
2013-10-28 09:00:00,39.0,-99.9,-100.00,ESE,119,2.0,5.0,-999,0.00,,,0.00,,2013-10-28 14:00:00,
2013-10-28 09:52:00,39.0,-99.9,-100.00,ESE,119,2.0,5.0,-999,0.00,,,0.00,,2013-10-28 14:52:00,
2013-10-28 10:00:00,42.0,-99.9,-100.00,ESE,119,4.0,8.0,-999,0.00,,,0.00,,2013-10-28 15:00:00,
2013-10-28 10:43:00,42.0,-99.9,-100.00,ESE,119,4.0,8.0,-999,0.00,,,0.00,,2013-10-28 15:43:00,
2013-10-28 10:53:00,42.0,-99.9,-100.00,ESE,119,4.0,8.0,-999,0.00,,,0.00,,2013-10-28 15:53:00,
2013-10-28 11:00:00,46.0,-99.9,-100.00,SE,125,3.0,9.0,-999,0.00,,,0.00,,2013-10-28 16:00:00,
2013-10-28 11:43:00,46.0,-99.9,-100.00,SE,125,3.0,9.0,-999,0.00,,,0.00,,2013-10-28 16:43:00,
2013-10-28 11:53:00,46.0,-99.9,-100.00,SE,125,3.0,9.0,-999,0.00,,,0.00,,2013-10-28 16:53:00,
2013-10-28 12:00:00,50.0,-99.9,-100.00,SE,126,6.0,12.0,-999,0.00,,,0.00,,2013-10-28 17:00:00,
2013-10-28 12:42:00,50.0,-99.9,-100.00,SE,126,6.0,12.0,-999,0.00,,,0.00,,2013-10-28 17:42:00,
2013-10-28 12:52:00,50.0,-99.9,-100.00,SE,126,6.0,12.0,-999,0.00,,,0.00,,2013-10-28 17:52:00,
2013-10-28 13:00:00,53.0,-99.9,-100.00,ESE,117,6.0,12.0,-999,0.00,,,0.00,,2013-10-28 18:00:00,
2013-10-28 13:42:00,53.0,-99.9,-100.00,ESE,117,6.0,12.0,-999,0.00,,,0.00,,2013-10-28 18:42:00,
2013-10-28 13:52:00,53.0,-99.9,-100.00,ESE,117,6.0,12.0,-999,0.00,,,0.00,,2013-10-28 18:52:00,
2013-10-28 14:00:00,56.0,-99.9,-100.00,ESE,119,3.0,14.0,-999,0.00,,,0.00,,2013-10-28 19:00:00,
2013-10-28 14:42:00,56.0,-99.9,-100.00,ESE,119,3.0,14.0,-999,0.00,,,0.00,,2013-10-28 19:42:00,
2013-10-28 14:53:00,56.0,-99.9,-100.00,ESE,119,3.0,14.0,-999,0.00,,,0.00,,2013-10-28 19:53:00,
2013-10-28 15:00:00,57.0,-99.9,-100.00,ESE,122,6.0,13.0,-999,0.00,,,0.00,,2013-10-28 20:00:00,
2013-10-28 15:42:00,57.0,-99.9,-100.00,ESE,122,6.0,13.0,-999,0.00,,,0.00,,2013-10-28 20:42:00,
2013-10-28 15:52:00,57.0,-99.9,-100.00,ESE,122,6.0,13.0,-999,0.00,,,0.00,,2013-10-28 20:52:00,
2013-10-28 16:00:00,57.0,-99.9,-100.00,SE,130,6.0,13.0,-999,0.00,,,0.00,,2013-10-28 21:00:00,
2013-10-28 16:43:00,57.0,-99.9,-100.00,SE,130,6.0,13.0,-999,0.00,,,0.00,,2013-10-28 21:43:00,
2013-10-28 16:54:00,57.0,-99.9,-100.00,SE,130,6.0,13.0,-999,0.00,,,0.00,,2013-10-28 21:54:00,
2013-10-28 17:00:00,57.0,-99.9,-100.00,ESE,119,5.0,10.0,-999,0.00,,,0.00,,2013-10-28 22:00:00,
2013-10-28 17:43:00,57.0,-99.9,-100.00,ESE,119,5.0,10.0,-999,0.00,,,0.00,,2013-10-28 22:43:00,
2013-10-28 17:53:00,57.0,-99.9,-100.00,ESE,119,5.0,10.0,-999,0.00,,,0.00,,2013-10-28 22:53:00,
2013-10-28 20:00:00,49.0,-99.9,-100.00,SE,144,1.0,6.0,-999,0.00,,,0.00,,2013-10-29 01:00:00,
2013-10-28 20:53:00,49.0,-99.9,-100.00,SE,144,1.0,6.0,-999,0.00,,,0.00,,2013-10-29 01:53:00,
2013-10-28 21:00:00,47.0,-99.9,-100.00,ESE,121,7.0,15.0,-999,0.00,,,0.00,,2013-10-29 02:00:00,
2013-10-28 21:44:00,47.0,-99.9,-100.00,ESE,121,7.0,15.0,-999,0.00,,,0.00,,2013-10-29 02:44:00,
2013-10-28 21:54:00,47.0,-99.9,-100.00,ESE,121,7.0,15.0,-999,0.00,,,0.00,,2013-10-29 02:54:00,
2013-10-28 22:00:00,45.0,-99.9,-100.00,ESE,114,9.0,21.0,-999,0.00,,,0.00,,2013-10-29 03:00:00,
2013-10-28 22:40:00,-999.0,-99.9,-100.00,ESE,114,9.0,21.0,-999,0.00,,,0.00,,2013-10-29 03:40:00,
2013-10-28 22:48:00,45.0,-99.9,-100.00,ESE,114,9.0,21.0,-999,0.00,,,0.00,,2013-10-29 03:48:00,
2013-10-28 22:56:00,45.0,-99.9,-100.00,ESE,114,9.0,21.0,-999,0.00,,,0.00,,2013-10-29 03:56:00,
2013-10-28 23:00:00,43.0,-99.9,-100.00,ESE,113,10.0,18.0,-999,0.00,,,0.00,,2013-10-29 04:00:00,
2013-10-28 23:58:00,43.0,-99.9,-100.00,ESE,113,10.0,18.0,-999,0.00,,,0.00,,2013-10-29 04:58:00,